Time;durP1;ratioP1;P1;durP2;ratioP2;P2;SDS_P1;SDS_P2;PMS_P1;PMS_P2;Temp;Humidity;BMP_temperature;BMP_pressure;BME280_temperature;BME280_humidity;BME280_pressure;Samples;Min_cycle;Max_cycle;Signal;HPM_P1;HPM_P2
2021/11/11 00:00:38;;;;;;;28.83;14.75;;;;;;;1.80;76.82;99636.25;2619770;46;20022;-70
2021/11/11 00:13:59;;;;;;;25.23;13.77;;;;;;;2.55;76.65;99621.75;2619870;54;20042;-69
2021/11/11 00:16:31;;;;;;;29.52;14.45;;;;;;;2.54;76.62;99615.72;2620161;54;20042;-70
2021/11/11 00:19:04;;;;;;;26.23;15.15;;;;;;;2.60;76.20;99619.59;2619909;54;20105;-69
2021/11/11 00:21:33;;;;;;;25.23;12.60;;;;;;;2.55;76.26;99619.97;2620020;54;20086;-70
2021/11/11 00:24:03;;;;;;;34.17;15.65;;;;;;;2.46;75.86;99624.16;2619878;54;20070;-70
2021/11/11 00:26:33;;;;;;;32.42;15.60;;;;;;;2.38;76.13;99623.91;2619723;54;20027;-69
2021/11/11 00:29:03;;;;;;;37.13;16.83;;;;;;;2.29;76.41;99613.38;2620040;54;20042;-70
2021/11/11 00:31:35;;;;;;;34.50;15.77;;;;;;;2.17;76.81;99608.16;2624214;54;20038;-70
2021/11/11 00:34:05;;;;;;;31.10;16.02;;;;;;;2.30;77.65;99612.44;2627795;54;20054;-71
2021/11/11 00:36:35;;;;;;;30.65;16.02;;;;;;;2.30;77.20;99612.44;2629038;31;20483;-70
2021/11/11 00:39:05;;;;;;;39.08;17.45;;;;;;;2.24;76.72;99608.50;2627115;54;20138;-72
2021/11/11 00:41:35;;;;;;;43.13;15.63;;;;;;;2.10;76.63;99611.38;2626954;54;20035;-71
2021/11/11 00:44:06;;;;;;;44.22;16.40;;;;;;;1.88;76.67;99605.19;2626170;54;20034;-71
2021/11/11 00:46:39;;;;;;;33.83;15.93;;;;;;;1.76;77.76;99602.72;2627872;39;20463;-69
2021/11/11 00:49:09;;;;;;;40.25;16.17;;;;;;;1.79;78.16;99595.47;2624592;54;20030;-68
2021/11/11 00:51:40;;;;;;;37.42;16.90;;;;;;;1.82;78.69;99594.41;2625401;47;20035;-69
2021/11/11 00:54:10;;;;;;;70.05;16.20;;;;;;;1.79;78.70;99590.25;2625151;47;20027;-69
2021/11/11 00:56:40;;;;;;;33.25;14.90;;;;;;;1.76;78.91;99592.28;2621956;47;20022;-70
2021/11/11 00:59:11;;;;;;;47.00;17.23;;;;;;;1.78;78.99;99593.81;2624023;47;20106;-70
2021/11/11 01:01:43;;;;;;;49.03;16.77;;;;;;;1.78;79.02;99595.59;2625236;54;20031;-69
2021/11/11 01:04:13;;;;;;;44.65;17.02;;;;;;;1.63;78.95;99598.44;2621935;54;20035;-69
2021/11/11 01:06:42;;;;;;;48.55;17.42;;;;;;;1.57;79.08;99601.47;2622022;47;20033;-69
2021/11/11 01:09:12;;;;;;;54.17;17.65;;;;;;;1.57;79.76;99611.91;2621846;54;20023;-70
2021/11/11 01:11:43;;;;;;;35.60;15.68;;;;;;;1.67;80.32;99601.59;2621061;54;20561;-70
2021/11/11 01:14:17;;;;;;;48.35;18.98;;;;;;;1.73;80.07;99599.38;2621258;54;20034;-69
2021/11/11 01:16:49;;;;;;;89.75;20.23;;;;;;;1.72;80.36;99600.31;2620577;47;20034;-69
2021/11/11 01:19:19;;;;;;;53.88;18.58;;;;;;;1.68;79.80;99598.91;2621098;54;20031;-70
2021/11/11 01:21:49;;;;;;;47.53;17.45;;;;;;;1.64;80.13;99605.28;2620120;47;20045;-69
2021/11/11 01:24:19;;;;;;;55.33;17.88;;;;;;;1.63;80.24;99608.84;2619202;47;20083;-70
2021/11/11 01:26:49;;;;;;;50.78;19.20;;;;;;;1.58;80.63;99600.53;2620021;46;20046;-70
2021/11/11 01:29:19;;;;;;;61.05;19.33;;;;;;;1.54;80.35;99596.50;2618925;54;20027;-69
2021/11/11 01:31:52;;;;;;;52.17;19.00;;;;;;;1.55;80.70;99595.56;2619054;47;20039;-70
2021/11/11 01:34:26;;;;;;;49.30;17.83;;;;;;;1.68;81.38;99606.72;2618662;54;20032;-71
2021/11/11 01:36:57;;;;;;;56.53;17.65;;;;;;;1.70;81.10;99598.78;2618320;54;20343;-70
2021/11/11 01:39:27;;;;;;;47.55;16.77;;;;;;;1.66;80.62;99602.56;2619066;47;20030;-70
2021/11/11 01:42:04;;;;;;;48.75;17.20;;;;;;;1.75;81.05;99604.47;2617961;47;20027;-70
2021/11/11 01:44:33;;;;;;;69.57;16.90;;;;;;;1.82;80.52;99603.06;2617782;54;20027;-71
2021/11/11 01:47:06;;;;;;;46.85;16.70;;;;;;;1.86;80.84;99614.06;2617972;54;20033;-71
2021/11/11 01:49:36;;;;;;;37.10;16.23;;;;;;;1.98;81.35;99613.13;2618923;47;20030;-69
2021/11/11 01:52:08;;;;;;;39.97;15.27;;;;;;;2.05;80.97;99609.13;2619811;54;20042;-71
2021/11/11 01:54:38;;;;;;;42.13;16.02;;;;;;;2.17;81.09;99602.13;2620562;47;20123;-71
2021/11/11 01:57:08;;;;;;;42.72;15.38;;;;;;;2.19;80.61;99613.25;2624020;47;20538;-71
2021/11/11 01:59:38;;;;;;;44.00;15.48;;;;;;;2.19;80.50;99610.66;2623398;47;20019;-70
2021/11/11 02:02:32;;;;;;;38.40;15.90;;;;;;;2.20;80.44;99614.91;2624010;47;20038;-71
2021/11/11 02:05:02;;;;;;;49.08;16.60;;;;;;;2.27;80.32;99616.09;2623203;47;20030;-70
2021/11/11 02:07:32;;;;;;;53.20;16.70;;;;;;;2.23;79.72;99612.88;2619117;54;20039;-71
2021/11/11 02:10:02;;;;;;;38.42;16.55;;;;;;;2.19;80.14;99608.03;2618893;54;20022;-71
2021/11/11 02:12:43;;;;;;;77.20;17.05;;;;;;;2.10;79.80;99612.19;2618106;54;20023;-71
2021/11/11 02:15:17;;;;;;;33.40;15.30;;;;;;;1.99;79.51;99602.56;2618426;54;20041;-72
2021/11/11 02:17:50;;;;;;;40.88;15.95;;;;;;;1.98;79.85;99603.53;2618708;54;20026;-70
2021/11/11 02:20:26;;;;;;;33.03;16.25;;;;;;;1.98;80.26;99610.53;2621330;47;20037;-71
2021/11/11 02:23:10;;;;;;;38.35;15.57;;;;;;;1.89;80.37;99596.44;2624954;39;20463;-71
2021/11/11 02:26:07;;;;;;;57.83;16.70;;;;;;;1.95;80.15;99606.38;2624239;39;20462;-72
2021/11/11 02:28:49;;;;;;;38.45;16.50;;;;;;;1.86;79.85;99594.03;2619851;47;20029;-71
2021/11/11 02:31:20;;;;;;;52.00;17.75;;;;;;;1.77;79.64;99588.72;2618701;54;20034;-72
2021/11/11 02:33:54;;;;;;;;;;;;;;;1.66;79.72;99592.13;2618165;47;20033;-71
2021/11/11 02:36:54;;;;;;;44.40;16.80;;;;;;;1.68;80.14;99595.47;2617892;47;19943;-70
2021/11/11 02:39:25;;;;;;;95.65;19.67;;;;;;;1.69;80.21;99597.13;2617792;54;20027;-71
2021/11/11 02:41:55;;;;;;;39.58;17.02;;;;;;;1.68;80.54;99596.28;2618965;54;20034;-71
2021/11/11 02:44:24;;;;;;;94.32;19.45;;;;;;;1.71;80.46;99588.25;2617438;47;20039;-71
2021/11/11 02:46:54;;;;;;;35.85;16.73;;;;;;;1.80;80.95;99591.09;2618108;47;20042;-71
2021/11/11 02:49:32;;;;;;;35.72;14.93;;;;;;;1.98;81.38;99593.09;2618247;39;20426;-71
2021/11/11 02:52:07;;;;;;;36.25;16.02;;;;;;;2.16;80.72;99597.84;2617552;54;20031;-71
2021/11/11 02:54:38;;;;;;;41.22;14.75;;;;;;;2.19;80.33;99608.03;2617841;47;20025;-70
2021/11/11 02:57:23;;;;;;;38.40;15.82;;;;;;;2.20;80.01;99591.44;2618463;54;20030;-71
2021/11/11 02:59:56;;;;;;;42.42;15.80;;;;;;;2.28;80.16;99598.66;2617730;47;20031;-71
2021/11/11 03:02:27;;;;;;;35.42;14.18;;;;;;;2.30;79.73;99600.22;2618003;54;20019;-70
2021/11/11 03:05:01;;;;;;;31.90;15.13;;;;;;;2.31;79.99;99590.59;2617940;54;20113;-72
2021/11/11 03:07:36;;;;;;;26.45;15.55;;;;;;;2.34;79.56;99585.97;2619802;51;20022;-70
2021/11/11 03:10:09;;;;;;;32.30;16.88;;;;;;;2.29;79.81;99592.50;2621151;54;20034;-70
2021/11/11 03:12:41;;;;;;;25.90;14.82;;;;;;;2.29;80.09;99580.28;2620324;51;20041;-70
2021/11/11 03:15:12;;;;;;;27.70;13.85;;;;;;;2.27;80.03;99581.34;2618836;39;20470;-70
2021/11/11 03:17:43;;;;;;;44.65;16.77;;;;;;;2.24;79.61;99592.84;2618002;47;20047;-71
2021/11/11 03:20:15;;;;;;;48.97;15.95;;;;;;;2.29;79.66;99577.69;2617741;54;20035;-70
2021/11/11 03:22:48;;;;;;;31.17;15.52;;;;;;;2.37;80.04;99580.50;2618073;54;20034;-70
2021/11/11 03:25:24;;;;;;;48.97;15.45;;;;;;;2.39;79.80;99580.38;2617631;47;20037;-71
2021/11/11 03:27:55;;;;;;;62.67;16.17;;;;;;;2.30;79.17;99568.91;2618429;54;20038;-71
2021/11/11 03:30:30;;;;;;;34.95;15.32;;;;;;;2.35;79.47;99578.97;2617352;54;20026;-71
2021/11/11 03:33:01;;;;;;;57.88;17.63;;;;;;;2.40;79.38;99582.03;2618286;54;20634;-71
2021/11/11 03:35:38;;;;;;;77.15;17.02;;;;;;;2.38;79.68;99573.50;2617655;54;20031;-71
2021/11/11 03:38:13;;;;;;;102.80;19.10;;;;;;;2.07;78.53;99568.09;2617588;54;20026;-71
2021/11/11 03:40:46;;;;;;;38.22;15.95;;;;;;;1.94;79.29;99573.44;2617957;54;20034;-70
2021/11/11 03:43:27;;;;;;;48.38;16.60;;;;;;;1.89;80.27;99575.56;2617359;50;20026;-70
2021/11/11 03:46:03;;;;;;;141.73;20.48;;;;;;;1.81;79.22;99572.72;2618505;54;20094;-70
2021/11/11 03:48:33;;;;;;;68.93;18.27;;;;;;;1.81;80.65;99570.13;2618210;47;20038;-70
2021/11/11 03:51:05;;;;;;;38.15;17.13;;;;;;;1.90;80.76;99571.19;2618941;47;20027;-71
2021/11/11 03:53:38;;;;;;;58.42;18.40;;;;;;;1.96;81.00;99575.94;2618639;47;20030;-70
2021/11/11 03:56:09;;;;;;;71.70;20.25;;;;;;;2.01;80.33;99570.34;2618172;47;20178;-70
2021/11/11 03:58:43;;;;;;;43.40;17.58;;;;;;;2.01;80.84;99575.56;2618833;54;20031;-71
2021/11/11 04:01:13;;;;;;;45.28;18.33;;;;;;;2.07;80.91;99567.25;2618120;54;20030;-71
2021/11/11 04:03:44;;;;;;;44.42;18.10;;;;;;;2.01;80.18;99576.41;2618238;54;20053;-71
2021/11/11 04:06:14;;;;;;;53.10;18.33;;;;;;;1.84;79.77;99575.09;2618371;47;20042;-71
2021/11/11 04:08:46;;;;;;;102.10;20.95;;;;;;;1.69;80.62;99582.31;2618322;54;20038;-71
2021/11/11 04:11:16;;;;;;;79.30;21.00;;;;;;;1.59;80.58;99585.72;2618157;54;20034;-71
2021/11/11 04:13:46;;;;;;;103.13;20.25;;;;;;;1.59;80.71;99588.31;2618208;47;20034;-71
2021/11/11 04:16:17;;;;;;;46.83;19.17;;;;;;;1.55;80.63;99585.16;2617404;47;20121;-70
2021/11/11 04:18:47;;;;;;;99.68;24.30;;;;;;;1.62;80.81;99588.91;2619154;39;20245;-71
2021/11/11 04:21:17;;;;;;;107.35;22.40;;;;;;;1.55;81.27;99598.19;2618364;46;20030;-70
2021/11/11 04:23:52;;;;;;;52.05;17.92;;;;;;;1.55;81.12;99590.34;2619471;51;20038;-71
2021/11/11 04:26:26;;;;;;;37.38;15.93;;;;;;;1.50;81.24;99595.06;2618074;54;20159;-70
2021/11/11 04:29:02;;;;;;;35.63;16.20;;;;;;;1.64;81.29;99586.22;2618340;47;20049;-71
2021/11/11 04:31:34;;;;;;;30.38;17.10;;;;;;;1.81;81.95;99585.75;2617924;54;20038;-71
2021/11/11 04:34:10;;;;;;;45.80;18.27;;;;;;;1.89;81.35;99583.38;2618320;54;20030;-70
2021/11/11 04:48:04;;;;;;;38.63;16.80;;;;;;;1.98;81.14;99577.47;2618341;51;20038;-71
2021/11/11 05:01:28;;;;;;;35.45;16.98;;;;;;;2.23;80.48;99599.03;2618199;47;20023;-71
2021/11/11 05:03:58;;;;;;;47.60;17.67;;;;;;;2.19;79.79;99595.00;2618643;54;20049;-70
2021/11/11 05:06:28;;;;;;;59.45;17.17;;;;;;;2.18;80.19;99595.94;2617804;47;20070;-70
2021/11/11 05:08:59;;;;;;;30.60;16.35;;;;;;;2.26;80.35;99592.75;2619015;54;20089;-69
2021/11/11 05:11:32;;;;;;;49.85;18.38;;;;;;;2.29;80.39;99597.72;2619105;47;20030;-69
2021/11/11 05:14:04;;;;;;;35.72;16.50;;;;;;;2.31;80.24;99590.59;2620057;39;20347;-70
2021/11/11 05:16:33;;;;;;;57.20;20.52;;;;;;;2.31;80.58;99593.22;2619207;47;20561;-69
2021/11/11 05:19:03;;;;;;;37.50;18.17;;;;;;;2.29;80.29;99600.34;2618947;39;20108;-70
2021/11/11 05:21:33;;;;;;;42.10;18.45;;;;;;;2.29;80.61;99593.34;2619919;47;20026;-69
2021/11/11 05:24:04;;;;;;;52.80;16.90;;;;;;;2.19;80.41;99598.44;2620152;47;20045;-70
2021/11/11 05:26:40;;;;;;;37.35;18.48;;;;;;;2.22;80.57;99611.25;2619360;54;20049;-69
2021/11/11 05:29:11;;;;;;;60.65;18.33;;;;;;;2.23;80.31;99609.44;2618714;47;20570;-70
2021/11/11 05:31:41;;;;;;;50.40;17.83;;;;;;;2.29;79.83;99616.00;2618031;47;20032;-69
2021/11/11 05:34:14;;;;;;;47.65;16.80;;;;;;;2.15;80.07;99615.25;2617722;54;20121;-70
2021/11/11 05:36:44;;;;;;;42.10;16.98;;;;;;;2.18;80.29;99617.63;2618234;47;20033;-71
2021/11/11 05:39:14;;;;;;;50.13;17.42;;;;;;;2.23;79.95;99627.72;2618020;48;20026;-69
2021/11/11 05:41:46;;;;;;;81.60;18.77;;;;;;;2.23;80.12;99632.94;2617909;47;20031;-70
2021/11/11 05:44:16;;;;;;;35.38;17.00;;;;;;;2.21;80.00;99630.47;2618712;31;20508;-70
2021/11/11 05:46:47;;;;;;;60.72;18.05;;;;;;;2.19;79.91;99627.13;2618386;54;20034;-69
2021/11/11 05:49:17;;;;;;;85.82;18.02;;;;;;;2.19;79.96;99626.28;2617897;54;20030;-70
2021/11/11 05:51:47;;;;;;;80.53;18.95;;;;;;;2.17;79.88;99629.03;2617560;54;20030;-70
2021/11/11 05:54:17;;;;;;;49.92;16.83;;;;;;;2.19;79.95;99628.91;2617790;54;20041;-70
2021/11/11 05:56:50;;;;;;;54.85;16.00;;;;;;;2.29;79.90;99627.25;2618585;39;20427;-71
2021/11/11 05:59:20;;;;;;;47.30;17.58;;;;;;;2.29;80.23;99639.47;2618475;54;20038;-70
2021/11/11 06:01:49;;;;;;;42.53;16.92;;;;;;;2.28;79.99;99636.00;2617683;47;20030;-70
2021/11/11 06:04:19;;;;;;;32.58;15.40;;;;;;;2.21;79.77;99638.28;2618311;54;20054;-70
2021/11/11 06:06:53;;;;;;;44.30;16.02;;;;;;;2.19;80.18;99642.78;2618208;54;20033;-70
2021/11/11 06:09:23;;;;;;;89.57;17.85;;;;;;;2.22;79.95;99641.72;2619543;47;20081;-70
2021/11/11 06:11:55;;;;;;;45.95;17.20;;;;;;;2.23;79.63;99640.75;2618807;47;20030;-70
2021/11/11 06:14:25;;;;;;;44.28;16.63;;;;;;;2.17;79.56;99639.47;2623713;47;20026;-71
2021/11/11 06:16:55;;;;;;;44.08;15.50;;;;;;;2.13;79.34;99645.88;2626950;54;20542;-71
2021/11/11 06:19:25;;;;;;;51.28;16.20;;;;;;;2.16;79.03;99648.25;2626729;54;20034;-70
2021/11/11 06:21:56;;;;;;;48.53;15.10;;;;;;;2.08;78.93;99654.97;2626801;54;20031;-70
2021/11/11 06:24:26;;;;;;;59.25;16.33;;;;;;;2.04;79.36;99649.19;2625382;47;20046;-70
2021/11/11 06:26:59;;;;;;;35.85;14.75;;;;;;;2.02;79.65;99656.28;2625908;47;20046;-70
2021/11/11 06:29:29;;;;;;;45.22;15.23;;;;;;;1.92;79.86;99661.38;2626239;54;20100;-69
2021/11/11 06:31:58;;;;;;;69.90;18.15;;;;;;;1.86;79.59;99666.22;2623932;47;20600;-71
2021/11/11 06:34:48;;;;;;;57.53;17.25;;;;;;;1.88;80.53;99673.00;2625318;54;20046;-70
2021/11/11 06:37:18;;;;;;;36.90;16.67;;;;;;;2.02;80.09;99674.53;2624769;54;20053;-70
2021/11/11 06:39:47;;;;;;;63.85;17.85;;;;;;;2.13;80.16;99673.75;2621649;54;20043;-71
2021/11/11 06:42:20;;;;;;;48.40;18.02;;;;;;;2.19;80.02;99666.25;2619493;54;20035;-70
2021/11/11 06:44:50;;;;;;;41.60;21.08;;;;;;;2.28;80.44;99658.66;2621178;54;20031;-69
2021/11/11 06:47:19;;;;;;;49.75;22.17;;;;;;;2.27;80.27;99651.78;2621452;54;20061;-68
2021/11/11 06:49:49;;;;;;;42.13;20.30;;;;;;;2.28;80.12;99661.28;2620999;47;20121;-69
2021/11/11 06:52:19;;;;;;;52.35;21.35;;;;;;;2.25;80.04;99664.13;2619679;54;20073;-70
2021/11/11 06:54:48;;;;;;;46.45;20.63;;;;;;;2.35;80.29;99667.69;2618946;47;20042;-69
2021/11/11 06:57:20;;;;;;;46.85;20.63;;;;;;;2.35;80.07;99665.06;2619231;39;20407;-69
2021/11/11 07:14:44;;;;;;;44.63;19.52;;;;;;;1.97;80.12;99685.34;2619421;47;20057;-67
2021/11/11 07:17:14;;;;;;;92.80;20.80;;;;;;;1.97;80.26;99689.72;2619611;54;20038;-69
2021/11/11 07:19:44;;;;;;;54.00;22.48;;;;;;;2.05;80.41;99691.75;2619126;47;20038;-68
2021/11/11 07:22:14;;;;;;;50.30;23.95;;;;;;;2.16;80.43;99689.13;2621074;39;20426;-68
2021/11/11 07:24:43;;;;;;;48.95;20.67;;;;;;;2.14;80.35;99680.59;2622310;54;20027;-69
2021/11/11 07:27:13;;;;;;;49.03;22.17;;;;;;;2.16;80.26;99679.56;2624352;54;20041;-68
2021/11/11 07:29:45;;;;;;;51.67;23.10;;;;;;;2.12;80.32;99683.34;2625026;54;20034;-68
2021/11/11 07:32:15;;;;;;;65.22;25.25;;;;;;;2.22;80.43;99686.06;2624693;54;20027;-68
2021/11/11 07:34:45;;;;;;;56.30;22.20;;;;;;;2.31;80.74;99681.91;2625411;39;20419;-68
2021/11/11 07:37:14;;;;;;;50.38;22.92;;;;;;;2.47;80.93;99677.16;2624559;54;20034;-69
2021/11/11 07:39:44;;;;;;;51.83;22.25;;;;;;;2.59;80.37;99678.81;2624388;54;20042;-69
2021/11/11 07:42:15;;;;;;;55.53;24.55;;;;;;;2.60;79.92;99680.47;2623964;54;20062;-69
2021/11/11 07:44:51;;;;;;;49.13;23.35;;;;;;;2.55;79.80;99681.78;2622283;47;20030;-68
2021/11/11 07:47:27;;;;;;;64.60;23.98;;;;;;;2.56;80.25;99686.88;2624397;47;20027;-68
2021/11/11 07:49:57;;;;;;;53.97;23.83;;;;;;;2.61;80.10;99689.13;2625058;54;20030;-68
2021/11/11 07:52:28;;;;;;;58.17;23.20;;;;;;;2.59;79.96;99680.59;2625175;54;20062;-69
2021/11/11 07:54:59;;;;;;;63.80;23.88;;;;;;;2.54;79.74;99687.97;2626039;39;20465;-69
2021/11/11 07:57:34;;;;;;;68.97;27.17;;;;;;;2.47;79.35;99688.44;2625018;54;20035;-68
2021/11/11 08:00:08;;;;;;;58.85;24.83;;;;;;;2.33;79.14;99686.09;2625208;54;20034;-69
2021/11/11 08:02:43;;;;;;;85.72;25.67;;;;;;;2.29;79.80;99696.88;2624894;54;20042;-68
2021/11/11 08:05:15;;;;;;;52.85;25.98;;;;;;;2.32;79.87;99699.22;2623897;46;20034;-69
2021/11/11 08:07:46;;;;;;;78.40;26.08;;;;;;;2.30;79.66;99699.34;2623451;54;20070;-67
2021/11/11 08:10:16;;;;;;;56.92;26.33;;;;;;;2.35;79.80;99692.00;2622023;54;20038;-68
2021/11/11 08:12:46;;;;;;;63.28;26.35;;;;;;;2.43;79.58;99694.00;2623241;46;20041;-70
2021/11/11 08:15:18;;;;;;;59.42;26.33;;;;;;;2.41;79.66;99693.31;2624181;54;20034;-67
2021/11/11 08:17:49;;;;;;;68.32;28.42;;;;;;;2.50;79.77;99691.78;2624175;54;20037;-67
2021/11/11 08:20:19;;;;;;;55.17;26.38;;;;;;;2.58;79.59;99692.00;2623827;54;20125;-67
2021/11/11 08:22:50;;;;;;;83.28;28.40;;;;;;;2.61;79.33;99689.13;2624509;54;20526;-67
2021/11/11 08:25:22;;;;;;;64.07;28.33;;;;;;;2.53;79.32;99694.97;2624996;54;20042;-68
2021/11/11 08:27:55;;;;;;;64.13;26.60;;;;;;;2.45;79.14;99706.00;2625405;54;20043;-69
2021/11/11 08:30:27;;;;;;;58.65;26.85;;;;;;;2.53;79.59;99709.78;2624957;54;20026;-68
2021/11/11 08:32:57;;;;;;;67.97;26.23;;;;;;;2.59;79.64;99711.94;2624029;54;20042;-68
2021/11/11 08:35:29;;;;;;;78.70;25.70;;;;;;;2.58;79.34;99711.09;2623679;54;20038;-68
2021/11/11 08:37:58;;;;;;;60.58;28.00;;;;;;;2.66;79.92;99713.13;2624594;54;20034;-67
2021/11/11 08:40:28;;;;;;;58.22;26.17;;;;;;;2.72;79.49;99716.06;2624223;54;20027;-69
2021/11/11 08:43:00;;;;;;;65.13;28.40;;;;;;;2.72;79.47;99723.91;2624641;39;20430;-68
2021/11/11 08:45:38;;;;;;;66.05;29.55;;;;;;;2.80;79.49;99715.47;2623274;47;20054;-68
2021/11/11 08:48:09;;;;;;;70.00;32.00;;;;;;;2.84;79.96;99721.28;2623539;47;20126;-68
2021/11/11 08:50:39;;;;;;;67.15;31.15;;;;;;;3.03;80.09;99720.66;2624101;54;20030;-68
2021/11/11 08:53:13;;;;;;;70.25;29.88;;;;;;;3.11;79.15;99708.66;2624591;54;20034;-68
2021/11/11 08:55:44;;;;;;;66.00;30.67;;;;;;;3.19;79.12;99716.72;2623770;47;20063;-68
2021/11/11 08:58:14;;;;;;;63.70;30.08;;;;;;;3.24;79.24;99721.56;2624525;54;20031;-68
2021/11/11 09:00:51;;;;;;;67.13;30.83;;;;;;;3.34;79.14;99721.63;2624557;54;20038;-68
2021/11/11 09:03:21;;;;;;;67.40;33.47;;;;;;;3.42;78.99;99722.66;2624749;54;20038;-69
2021/11/11 09:05:51;;;;;;;72.90;34.65;;;;;;;3.44;78.69;99715.56;2625040;54;20041;-69
2021/11/11 09:08:21;;;;;;;68.18;33.08;;;;;;;3.54;78.46;99714.78;2624878;54;20042;-68
2021/11/11 09:10:52;;;;;;;64.03;30.13;;;;;;;3.66;78.36;99721.63;2622757;54;20034;-69
2021/11/11 09:13:31;;;;;;;69.03;30.98;;;;;;;3.79;78.28;99718.84;2622569;54;20031;-68
2021/11/11 09:16:04;;;;;;;61.83;29.90;;;;;;;3.91;78.19;99725.66;2622386;39;20555;-68
2021/11/11 09:18:34;;;;;;;69.38;32.22;;;;;;;4.03;78.12;99724.63;2622409;54;20034;-68
2021/11/11 09:21:06;;;;;;;71.15;35.45;;;;;;;4.11;77.85;99729.22;2622178;54;20093;-68
2021/11/11 09:23:37;;;;;;;68.05;31.75;;;;;;;4.27;76.98;99729.59;2622105;54;20086;-67
2021/11/11 09:26:09;;;;;;;64.95;32.58;;;;;;;4.33;76.96;99723.88;2622684;54;20045;-67
2021/11/11 09:28:42;;;;;;;62.22;30.52;;;;;;;4.38;76.89;99734.78;2621901;47;20053;-68
2021/11/11 09:31:16;;;;;;;69.40;30.27;;;;;;;4.19;76.29;99737.28;2623727;54;20045;-68
2021/11/11 09:33:48;;;;;;;66.72;32.00;;;;;;;4.16;76.56;99745.38;2623768;47;20617;-68
2021/11/11 09:36:19;;;;;;;67.13;31.23;;;;;;;4.18;76.91;99743.47;2623864;54;20035;-68
2021/11/11 09:38:51;;;;;;;64.75;32.33;;;;;;;3.98;76.71;99748.56;2624054;47;20035;-67
2021/11/11 09:41:23;;;;;;;60.22;29.80;;;;;;;3.98;76.81;99755.59;2623917;54;20542;-67
2021/11/11 09:43:53;;;;;;;53.60;28.55;;;;;;;4.06;76.86;99753.19;2624655;54;20031;-68
2021/11/11 09:46:25;;;;;;;60.70;30.52;;;;;;;4.02;76.55;99750.94;2624685;54;20031;-67
2021/11/11 09:48:56;;;;;;;60.00;28.70;;;;;;;4.03;76.67;99758.66;2624751;54;20442;-69
2021/11/11 09:51:26;;;;;;;60.10;27.88;;;;;;;4.07;76.64;99757.44;2624506;54;20059;-69
2021/11/11 09:54:07;;;;;;;49.65;27.60;;;;;;;4.12;76.79;99759.69;2624828;54;20023;-68
2021/11/11 09:59:20;;;;;;;43.05;25.08;;;;;;;4.23;76.08;99767.47;2624639;54;20034;-68
2021/11/11 10:01:53;;;;;;;41.05;25.05;;;;;;;4.25;75.84;99760.34;2624590;54;20041;-68
2021/11/11 10:04:23;;;;;;;46.30;25.70;;;;;;;4.23;75.58;99759.63;2624649;54;20028;-68
2021/11/11 10:06:53;;;;;;;40.65;22.95;;;;;;;4.29;76.46;99753.88;2624594;54;20038;-66
2021/11/11 10:09:25;;;;;;;37.65;22.42;;;;;;;4.38;75.72;99752.28;2624764;54;20046;-67
2021/11/11 10:11:56;;;;;;;36.35;22.50;;;;;;;4.41;75.27;99744.16;2624243;54;20038;-67
2021/11/11 10:14:28;;;;;;;48.03;23.40;;;;;;;4.48;75.40;99751.34;2624336;39;20719;-68
2021/11/11 10:17:03;;;;;;;38.42;22.13;;;;;;;4.39;75.37;99754.75;2623553;54;20027;-69
2021/11/11 10:19:35;;;;;;;52.65;23.35;;;;;;;4.19;74.68;99748.56;2624342;54;20573;-68
2021/11/11 10:22:08;;;;;;;35.90;22.58;;;;;;;4.09;75.29;99747.69;2624797;39;20494;-69
2021/11/11 10:24:44;;;;;;;39.30;22.52;;;;;;;4.01;75.56;99749.28;2624347;54;20031;-68
2021/11/11 10:27:24;;;;;;;37.67;21.35;;;;;;;4.12;76.23;99741.34;2624506;54;20050;-68
2021/11/11 10:30:00;;;;;;;36.92;22.33;;;;;;;4.30;76.26;99736.38;2624683;54;20033;-68
2021/11/11 10:32:35;;;;;;;39.53;22.30;;;;;;;4.52;76.04;99738.00;2622980;54;20542;-69
2021/11/11 10:35:07;;;;;;;38.60;22.45;;;;;;;4.67;75.62;99731.44;2624418;54;20031;-69
2021/11/11 10:37:40;;;;;;;38.97;24.02;;;;;;;4.76;75.39;99714.94;2624379;54;20030;-69
2021/11/11 10:40:13;;;;;;;35.15;21.95;;;;;;;4.74;75.31;99709.00;2624027;47;20055;-69
2021/11/11 10:42:46;;;;;;;35.92;21.80;;;;;;;4.93;74.95;99710.84;2623994;39;20420;-69
2021/11/11 10:45:18;;;;;;;30.85;21.00;;;;;;;4.95;75.33;99709.75;2624233;54;20045;-69
2021/11/11 10:47:54;;;;;;;34.25;21.17;;;;;;;5.08;75.32;99696.41;2622088;39;20435;-66
2021/11/11 10:50:26;;;;;;;28.23;19.50;;;;;;;5.17;75.09;99692.94;2622996;54;20041;-67
2021/11/11 10:52:57;;;;;;;30.70;20.25;;;;;;;5.20;74.45;99689.25;2624759;54;20094;-67
2021/11/11 10:55:29;;;;;;;28.63;20.30;;;;;;;5.16;74.41;99695.72;2624221;54;20026;-68
2021/11/11 10:58:03;;;;;;;31.45;20.50;;;;;;;5.22;74.72;99690.78;2624111;54;20031;-68
2021/11/11 11:00:41;;;;;;;27.65;20.05;;;;;;;5.35;74.14;99695.75;2623993;54;20030;-68
2021/11/11 11:03:15;;;;;;;39.40;21.70;;;;;;;5.38;74.13;99692.81;2624055;54;20541;-67
2021/11/11 11:05:57;;;;;;;34.83;22.40;;;;;;;5.31;74.09;99689.13;2623758;54;20084;-67
2021/11/11 11:08:28;;;;;;;30.42;20.20;;;;;;;5.43;74.29;99692.44;2624699;54;20041;-67
2021/11/11 11:11:01;;;;;;;31.48;21.50;;;;;;;5.58;74.21;99687.59;2624150;54;20129;-67
2021/11/11 11:13:33;;;;;;;32.17;21.80;;;;;;;5.56;74.35;99682.50;2623968;54;20538;-67
2021/11/11 11:16:04;;;;;;;31.02;20.50;;;;;;;5.63;74.03;99683.59;2624488;54;20039;-68
2021/11/11 11:18:40;;;;;;;32.55;22.85;;;;;;;5.77;74.01;99684.13;2624082;54;20033;-67
2021/11/11 11:21:13;;;;;;;31.98;21.42;;;;;;;5.81;72.96;99685.50;2623192;54;20022;-68
2021/11/11 11:23:45;;;;;;;32.85;21.42;;;;;;;5.94;72.70;99683.44;2623107;47;20554;-68
2021/11/11 11:26:18;;;;;;;35.13;22.50;;;;;;;6.01;72.44;99688.97;2623302;51;20034;-65
2021/11/11 11:29:04;;;;;;;34.42;22.75;;;;;;;6.03;72.33;99693.09;2623749;54;20043;-68
2021/11/11 11:31:42;;;;;;;31.73;21.13;;;;;;;6.09;72.00;99691.72;2623544;54;20027;-67
2021/11/11 11:34:19;;;;;;;33.65;23.65;;;;;;;6.08;72.16;99696.13;2623681;54;20023;-66
2021/11/11 11:36:52;;;;;;;38.67;25.63;;;;;;;6.06;71.76;99699.84;2623549;54;20581;-67
2021/11/11 11:39:27;;;;;;;34.88;24.42;;;;;;;6.09;71.62;99694.34;2623299;54;20034;-68
2021/11/11 11:42:00;;;;;;;38.78;24.75;;;;;;;6.12;72.29;99688.78;2623659;54;20031;-74
2021/11/11 11:44:41;;;;;;;39.75;26.45;;;;;;;6.20;72.42;99684.50;2623002;54;20042;-67
2021/11/11 11:47:22;;;;;;;39.22;26.13;;;;;;;6.24;71.81;99682.38;2623388;54;20030;-68
2021/11/11 11:49:58;;;;;;;43.20;28.20;;;;;;;6.08;70.74;99680.38;2623419;54;20045;-67
2021/11/11 11:52:31;;;;;;;41.15;28.27;;;;;;;5.87;71.85;99677.06;2622619;47;20031;-66
2021/11/11 11:55:06;;;;;;;42.35;29.17;;;;;;;5.82;71.84;99671.41;2621692;54;20534;-67
2021/11/11 11:57:50;;;;;;;45.83;29.05;;;;;;;5.80;71.75;99674.19;2620188;54;20042;-67
2021/11/11 12:00:38;;;;;;;41.88;27.92;;;;;;;5.78;72.04;99665.63;2620348;39;20447;-67
2021/11/11 12:03:33;;;;;;;42.65;27.70;;;;;;;5.90;73.27;99664.47;2620604;54;20090;-67
2021/11/11 12:06:31;;;;;;;41.30;27.70;;;;;;;6.08;73.13;99666.41;2620165;54;20022;-67
2021/11/11 12:14:38;;;;;;;41.30;29.25;;;;;;;6.50;71.74;99647.59;2625959;39;20451;-67
2021/11/11 12:39:42;;;;;;;37.67;26.42;;;;;;;7.13;71.53;99611.63;2625358;54;20022;-67
2021/11/11 12:42:16;;;;;;;39.40;26.23;;;;;;;7.23;71.34;99606.31;2624811;47;20030;-67
2021/11/11 12:45:02;;;;;;;35.20;24.63;;;;;;;7.25;70.79;99606.16;2625251;54;20042;-67
2021/11/11 12:47:34;;;;;;;36.15;25.27;;;;;;;7.31;70.69;99609.00;2625359;54;20037;-66
2021/11/11 12:50:29;;;;;;;40.47;26.80;;;;;;;7.35;70.87;99606.91;2625106;54;20214;-67
2021/11/11 12:53:24;;;;;;;42.67;27.33;;;;;;;7.43;70.52;99597.28;2622963;54;20074;-68
2021/11/11 12:56:18;;;;;;;35.92;25.23;;;;;;;7.53;70.51;99601.59;2621111;54;20038;-68
2021/11/11 12:58:50;;;;;;;;;;;;;;;7.56;70.38;99602.13;2621325;54;20027;-68
2021/11/11 13:01:25;;;;;;;37.55;25.05;;;;;;;7.60;70.00;99600.03;2620700;54;19939;-66
2021/11/11 13:03:58;;;;;;;37.60;25.50;;;;;;;7.62;70.07;99595.41;2621206;54;20026;-66
2021/11/11 13:06:40;;;;;;;37.28;26.40;;;;;;;7.74;69.95;99596.81;2621180;54;20039;-68
2021/11/11 13:09:14;;;;;;;36.05;25.30;;;;;;;7.82;69.48;99594.22;2621679;54;20026;-68
2021/11/11 13:11:48;;;;;;;38.22;24.55;;;;;;;7.89;69.17;99595.25;2623256;54;20042;-67